createdAt,value
2023-02-23T16:18:42.516Z,14.52
2023-02-23T16:19:46.321Z,14.37
2023-02-23T16:20:59.607Z,14.31
2023-02-23T16:22:02.976Z,14.41
2023-02-23T16:23:07.717Z,14.44
2023-02-23T16:24:13.733Z,14.49
2023-02-23T16:25:18.791Z,14.52
2023-02-23T16:26:34.683Z,14.46
2023-02-23T16:27:38.693Z,14.53
2023-02-23T16:28:43.953Z,14.48
2023-02-23T16:29:47.828Z,14.45
2023-02-23T16:31:05.884Z,14.29
2023-02-23T16:32:20.806Z,14.21
2023-02-23T16:33:26.238Z,14.25
2023-02-23T16:34:38.289Z,14.23
2023-02-23T16:35:46.388Z,14.17
2023-02-23T16:36:51.285Z,14.10
2023-02-23T16:38:00.512Z,14.10
2023-02-23T16:39:06.761Z,14.14
2023-02-23T16:40:13.624Z,14.16
2023-02-23T16:41:20.456Z,14.27
2023-02-23T16:42:27.733Z,14.17
2023-02-23T16:43:32.327Z,14.17
2023-02-23T16:44:43.535Z,14.24
2023-02-23T16:45:48.302Z,14.39
2023-02-23T16:47:11.598Z,14.55
2023-02-23T16:48:16.243Z,14.52
2023-02-23T16:49:20.420Z,14.39
2023-02-23T16:50:25.006Z,14.52
2023-02-23T16:51:28.681Z,14.52
2023-02-23T16:52:33.401Z,14.51
2023-02-23T16:53:37.336Z,14.36
2023-02-23T16:54:40.711Z,14.38
2023-02-23T16:55:55.537Z,14.35
2023-02-23T16:56:59.060Z,14.35
2023-02-23T16:58:03.487Z,14.32
2023-02-23T16:59:10.102Z,14.36
2023-02-23T17:00:15.093Z,14.23
2023-02-23T17:01:19.095Z,14.08
2023-02-23T17:02:25.703Z,14.02
2023-02-23T17:03:32.671Z,13.85
2023-02-23T17:04:37.892Z,13.90
2023-02-23T17:05:41.750Z,13.87
2023-02-23T17:06:46.113Z,13.87
2023-02-23T17:07:50.083Z,13.79
2023-02-23T17:08:58.510Z,13.81
2023-02-23T17:10:02.468Z,13.81
2023-02-23T17:11:06.217Z,13.91
2023-02-23T17:12:12.764Z,13.93
2023-02-23T17:13:20.232Z,13.90
2023-02-23T17:14:29.043Z,13.83
2023-02-23T17:15:36.050Z,13.71
2023-02-23T17:16:39.952Z,13.58
2023-02-23T17:17:43.733Z,13.54
2023-02-23T17:18:47.509Z,13.50
2023-02-23T17:19:51.644Z,13.47
2023-02-23T17:20:55.763Z,13.51
2023-02-23T17:21:59.063Z,13.49
2023-02-23T17:23:03.261Z,13.47
2023-02-23T17:24:07.140Z,13.46
2023-02-23T17:25:11.684Z,13.44
2023-02-23T17:26:15.568Z,13.44
2023-02-23T17:27:18.979Z,13.42
2023-02-23T17:28:22.544Z,13.44
2023-02-23T17:29:25.891Z,13.37
2023-02-23T17:30:29.925Z,13.33
2023-02-23T17:31:33.941Z,13.20
2023-02-23T17:32:37.507Z,13.14
2023-02-23T17:33:41.595Z,13.11
2023-02-23T17:34:45.154Z,13.09
2023-02-23T17:35:48.627Z,13.04
2023-02-23T17:36:52.021Z,13.09
2023-02-23T17:37:55.578Z,13.11
2023-02-23T17:38:59.399Z,13.07
2023-02-23T17:40:02.937Z,13.06
2023-02-23T17:41:10.281Z,13.06
2023-02-23T17:42:15.515Z,13.03
2023-02-23T17:43:22.557Z,13.04
2023-02-23T17:44:27.082Z,13.03
2023-02-23T17:45:30.876Z,12.96
2023-02-23T17:46:34.748Z,12.85
2023-02-23T17:47:41.192Z,12.78
2023-02-23T17:48:47.253Z,12.72
2023-02-23T17:49:50.712Z,12.65
2023-02-23T17:50:59.564Z,12.60
2023-02-23T17:52:04.232Z,12.56
2023-02-23T17:53:11.051Z,12.52
2023-02-23T17:54:14.633Z,12.52
2023-02-23T17:55:18.521Z,12.52
2023-02-23T17:56:24.550Z,12.48
2023-02-23T17:57:29.943Z,12.49
2023-02-23T17:58:33.913Z,12.45
2023-02-23T17:59:37.461Z,12.36
2023-02-23T18:00:41.307Z,12.33
2023-02-23T18:01:47.285Z,12.27
2023-02-23T18:02:51.787Z,12.26
2023-02-23T18:03:59.364Z,12.22
2023-02-23T18:05:03.019Z,12.18
2023-02-23T18:06:09.392Z,12.13
2023-02-23T18:07:12.971Z,12.11
2023-02-23T18:08:20.541Z,12.08
2023-02-23T18:09:24.078Z,12.02
2023-02-23T18:10:27.501Z,12.01
2023-02-23T18:11:30.967Z,12.01
2023-02-23T18:12:35.034Z,12.00
2023-02-23T18:13:38.684Z,11.97
2023-02-23T18:14:43.508Z,11.89
2023-02-23T18:15:51.518Z,11.81
2023-02-23T18:16:55.362Z,11.76
2023-02-23T18:18:00.102Z,11.74
2023-02-23T18:19:03.981Z,11.67
2023-02-23T18:20:08.395Z,11.69
2023-02-23T18:21:16.600Z,11.62
2023-02-23T18:22:20.163Z,11.54
2023-02-23T18:23:24.170Z,11.47
2023-02-23T18:24:28.071Z,11.33
2023-02-23T18:25:32.032Z,11.26
2023-02-23T18:26:36.010Z,11.16
2023-02-23T18:27:39.896Z,11.15
2023-02-23T18:28:45.492Z,11.11
2023-02-23T18:29:49.426Z,11.07
2023-02-23T18:30:52.990Z,11.02
2023-02-23T18:31:58.666Z,11.00
2023-02-23T18:33:02.432Z,11.04
2023-02-23T18:34:07.141Z,11.03
2023-02-23T18:35:10.703Z,10.99
2023-02-23T18:36:27.083Z,10.99
2023-02-23T18:37:31.654Z,10.95
2023-02-23T18:38:35.626Z,10.94
2023-02-23T18:39:39.089Z,10.94
2023-02-23T18:40:42.771Z,10.96
2023-02-23T18:41:46.251Z,10.94
2023-02-23T18:42:50.070Z,10.91
2023-02-23T18:43:54.004Z,10.95
2023-02-23T18:44:57.555Z,10.91
2023-02-23T18:46:02.034Z,10.88
2023-02-23T18:47:05.731Z,10.87
2023-02-23T18:48:11.413Z,10.80
2023-02-23T18:49:19.076Z,10.77
2023-02-23T18:50:27.127Z,10.72
2023-02-23T18:51:30.727Z,10.66
2023-02-23T18:52:36.208Z,10.49
2023-02-23T18:53:39.793Z,10.52
2023-02-23T18:54:43.566Z,10.49
2023-02-23T18:55:48.251Z,10.45
2023-02-23T18:56:53.309Z,10.42
2023-02-23T18:57:57.541Z,10.43
2023-02-23T18:59:02.487Z,10.45
2023-02-23T19:00:14.291Z,10.42
2023-02-23T19:01:21.368Z,10.45
2023-02-23T19:02:25.828Z,10.49
2023-02-23T19:03:29.919Z,10.53
2023-02-23T19:04:33.493Z,10.55
2023-02-23T19:05:38.275Z,10.54
2023-02-23T19:06:45.125Z,10.59
2023-02-23T19:07:48.609Z,10.56
2023-02-23T19:08:58.147Z,10.59
2023-02-23T19:10:03.022Z,10.63
2023-02-23T19:11:07.039Z,10.58
2023-02-23T19:12:11.965Z,10.60
2023-02-23T19:13:15.901Z,10.62
2023-02-23T19:14:21.981Z,10.64
2023-02-23T19:15:27.821Z,10.49
2023-02-23T19:16:32.874Z,10.46
2023-02-23T19:17:36.880Z,10.43
2023-02-23T19:18:40.962Z,10.37
2023-02-23T19:19:45.089Z,10.36
2023-02-23T19:20:55.986Z,10.42
2023-02-23T19:21:59.886Z,10.45
2023-02-23T19:23:04.171Z,10.47
2023-02-23T19:24:08.439Z,10.44
2023-02-23T19:25:14.907Z,10.42
2023-02-23T19:26:19.097Z,10.41
2023-02-23T19:27:23.367Z,10.39
2023-02-23T19:28:27.793Z,10.39
2023-02-23T19:29:31.355Z,10.35
2023-02-23T19:30:35.158Z,10.26
2023-02-23T19:31:39.265Z,10.36
2023-02-23T19:32:43.953Z,10.43
2023-02-23T19:33:48.479Z,10.42
2023-02-23T19:34:52.315Z,10.38
2023-02-23T19:35:55.962Z,10.32
2023-02-23T19:36:59.419Z,10.29
2023-02-23T19:38:04.354Z,10.30
2023-02-23T19:39:11.245Z,10.24
2023-02-23T19:40:21.621Z,10.21
2023-02-23T19:41:25.171Z,10.23
2023-02-23T19:42:31.667Z,10.31
2023-02-23T19:43:35.506Z,10.31
2023-02-23T19:44:38.955Z,10.37
2023-02-23T19:45:46.582Z,10.45
2023-02-23T19:46:50.343Z,10.53
2023-02-23T19:47:54.456Z,10.53
2023-02-23T19:48:58.497Z,10.48
2023-02-23T19:50:02.008Z,10.45
2023-02-23T19:51:06.425Z,10.45
2023-02-23T19:52:10.441Z,10.43
2023-02-23T19:53:14.512Z,10.42
2023-02-23T19:54:18.479Z,10.41
2023-02-23T19:55:22.527Z,10.43
2023-02-23T19:56:28.767Z,10.41
2023-02-23T19:57:32.243Z,10.39
2023-02-23T19:58:36.343Z,10.40
2023-02-23T19:59:39.935Z,10.41
2023-02-23T20:00:43.321Z,10.37
2023-02-23T20:01:47.345Z,10.38
2023-02-23T20:02:56.616Z,10.29
2023-02-23T20:04:06.554Z,10.25
2023-02-23T20:05:12.875Z,10.19
2023-02-23T20:06:17.905Z,10.16
2023-02-23T20:07:21.784Z,10.08
2023-02-23T20:08:25.682Z,10.03
2023-02-23T20:09:29.421Z,9.97
2023-02-23T20:10:35.608Z,9.93
2023-02-23T20:11:39.748Z,9.91
2023-02-23T20:12:43.975Z,9.84
2023-02-23T20:13:47.473Z,9.73
2023-02-23T20:14:51.363Z,9.67
2023-02-23T20:16:05.539Z,9.67
2023-02-23T20:17:09.592Z,9.61
2023-02-23T20:18:14.531Z,9.65
2023-02-23T20:19:19.130Z,9.68
2023-02-23T20:20:26.077Z,9.63
2023-02-23T20:21:31.031Z,9.58
2023-02-23T20:22:36.894Z,9.52
2023-02-23T20:23:41.116Z,9.53
2023-02-23T20:24:44.746Z,9.51
2023-02-23T20:25:48.592Z,9.50
2023-02-23T20:26:57.173Z,9.49
2023-02-23T20:28:00.769Z,9.50
2023-02-23T20:29:07.249Z,9.56
2023-02-23T20:30:12.974Z,9.58
2023-02-23T20:31:21.954Z,9.58
2023-02-23T20:32:26.082Z,9.56
2023-02-23T20:33:31.175Z,9.61
2023-02-23T20:34:36.215Z,9.65
2023-02-23T20:35:39.738Z,9.70
2023-02-23T20:36:44.606Z,9.70
2023-02-23T20:37:48.587Z,9.74
2023-02-23T20:38:52.499Z,9.73
2023-02-23T20:39:56.321Z,9.70
2023-02-23T20:41:03.911Z,9.71
2023-02-23T20:42:07.751Z,9.73
2023-02-23T20:43:11.703Z,9.73
2023-02-23T20:44:16.265Z,9.78
2023-02-23T20:45:22.079Z,9.80
2023-02-23T20:46:26.036Z,9.81
2023-02-23T20:47:29.633Z,9.81
2023-02-23T20:48:34.102Z,9.80
2023-02-23T20:49:38.432Z,9.74
2023-02-23T20:50:43.426Z,9.75
2023-02-23T20:51:48.131Z,9.78
2023-02-23T20:52:52.176Z,9.80
2023-02-23T20:53:55.844Z,9.82
2023-02-23T20:54:59.245Z,9.78
2023-02-23T20:56:06.202Z,9.69
2023-02-23T20:57:10.137Z,9.69
2023-02-23T20:58:14.960Z,9.64
2023-02-23T20:59:20.944Z,9.63
2023-02-23T21:00:32.953Z,9.66
2023-02-23T21:01:36.417Z,9.66
2023-02-23T21:02:41.717Z,9.67
2023-02-23T21:03:45.309Z,9.64
2023-02-23T21:04:48.740Z,9.61
2023-02-23T21:05:52.976Z,9.60
2023-02-23T21:06:57.050Z,9.59
2023-02-23T21:08:01.736Z,9.61
2023-02-23T21:09:05.686Z,9.61
2023-02-23T21:10:10.249Z,9.64
2023-02-23T21:11:13.654Z,9.66
2023-02-23T21:12:17.585Z,9.64
2023-02-23T21:13:23.922Z,9.64
2023-02-23T21:14:27.844Z,9.62
2023-02-23T21:15:31.502Z,9.61
2023-02-23T21:16:36.574Z,9.58
2023-02-23T21:17:41.025Z,9.56
2023-02-23T21:18:44.469Z,9.55
2023-02-23T21:19:48.026Z,9.52
2023-02-23T21:20:51.888Z,9.53
2023-02-23T21:21:59.237Z,9.47
2023-02-23T21:23:05.085Z,9.48
2023-02-23T21:24:09.170Z,9.51
2023-02-23T21:25:12.716Z,9.49
2023-02-23T21:26:17.411Z,9.49
2023-02-23T21:27:21.338Z,9.51
2023-02-23T21:28:25.256Z,9.50
2023-02-23T21:29:29.089Z,9.51
2023-02-23T21:30:32.498Z,9.54
2023-02-23T21:31:36.402Z,9.53
2023-02-23T21:32:43.218Z,9.56
2023-02-23T21:33:47.403Z,9.55
2023-02-23T21:34:51.338Z,9.53
2023-02-23T21:35:59.500Z,9.48
2023-02-23T21:37:03.065Z,9.46
2023-02-23T21:38:09.085Z,9.45
2023-02-23T21:39:13.147Z,9.44
2023-02-23T21:40:26.574Z,9.39
2023-02-23T21:41:34.496Z,9.36
2023-02-23T21:42:41.754Z,9.33
2023-02-23T21:43:45.356Z,9.28
2023-02-23T21:44:49.365Z,9.28
2023-02-23T21:45:54.325Z,9.27
2023-02-23T21:46:57.778Z,9.27
2023-02-23T21:48:01.567Z,9.24
2023-02-23T21:49:10.457Z,9.30
2023-02-23T21:50:16.648Z,9.28
2023-02-23T21:51:20.855Z,9.26
2023-02-23T21:52:24.668Z,9.21
2023-02-23T21:53:28.076Z,9.18
2023-02-23T21:54:31.842Z,9.15
2023-02-23T21:55:39.039Z,9.14
2023-02-23T21:56:42.511Z,9.08
2023-02-23T21:57:46.538Z,9.02
2023-02-23T21:58:52.543Z,9.02
2023-02-23T21:59:56.441Z,8.98
2023-02-23T22:01:00.004Z,8.93
2023-02-23T22:02:03.945Z,8.97
2023-02-23T22:03:09.233Z,8.97
2023-02-23T22:04:14.808Z,8.97
2023-02-23T22:05:19.932Z,8.95
2023-02-23T22:06:26.004Z,8.94
2023-02-23T22:07:30.132Z,8.90
2023-02-23T22:08:34.134Z,8.90
2023-02-23T22:09:37.640Z,8.86
2023-02-23T22:10:41.046Z,8.79
2023-02-23T22:11:46.876Z,8.81
2023-02-23T22:12:57.764Z,8.74
2023-02-23T22:14:01.629Z,8.71
2023-02-23T22:15:08.841Z,8.66
2023-02-23T22:16:14.990Z,8.67
2023-02-23T22:17:19.835Z,8.66
2023-02-23T22:18:25.286Z,8.62
2023-02-23T22:19:28.865Z,8.62
2023-02-23T22:20:32.320Z,8.57
2023-02-23T22:21:37.724Z,8.55
2023-02-23T22:22:42.306Z,8.58
2023-02-23T22:23:48.724Z,8.59
2023-02-23T22:24:52.393Z,8.59
2023-02-23T22:25:56.071Z,8.55
2023-02-23T22:27:01.796Z,8.48
2023-02-23T22:28:09.478Z,8.53
2023-02-23T22:29:13.326Z,8.55
2023-02-23T22:30:17.114Z,8.55
2023-02-23T22:31:21.050Z,8.54
2023-02-23T22:32:27.905Z,8.53
2023-02-23T22:33:31.523Z,8.53
2023-02-23T22:34:35.653Z,8.52
2023-02-23T22:35:41.603Z,8.51
2023-02-23T22:36:45.731Z,8.45
2023-02-23T22:37:50.105Z,8.48
2023-02-23T22:38:53.640Z,8.48
2023-02-23T22:39:58.584Z,8.47
2023-02-23T22:41:02.623Z,8.48
2023-02-23T22:42:10.167Z,8.48
2023-02-23T22:43:16.873Z,8.49
2023-02-23T22:44:21.855Z,8.51
2023-02-23T22:45:25.649Z,8.47
2023-02-23T22:46:29.523Z,8.50
2023-02-23T22:47:35.828Z,8.48
2023-02-23T22:48:39.817Z,8.43
2023-02-23T22:49:43.278Z,8.40
2023-02-23T22:50:47.202Z,8.34
2023-02-23T22:51:50.950Z,8.34
2023-02-23T22:52:54.813Z,8.36
2023-02-23T22:53:58.801Z,8.36
2023-02-23T22:55:04.169Z,8.32
2023-02-23T22:56:08.131Z,8.34
2023-02-23T22:57:12.448Z,8.30
2023-02-23T22:58:17.031Z,8.28
2023-02-23T22:59:21.240Z,8.26
2023-02-23T23:00:25.515Z,8.18
2023-02-23T23:01:29.533Z,8.20
2023-02-23T23:02:33.020Z,8.17
2023-02-23T23:03:38.281Z,8.17
2023-02-23T23:04:41.912Z,8.15
2023-02-23T23:05:52.009Z,8.09
2023-02-23T23:06:55.564Z,8.10
2023-02-23T23:07:59.582Z,8.07
2023-02-23T23:09:03.395Z,8.09
2023-02-23T23:10:10.187Z,8.08
2023-02-23T23:11:22.104Z,8.09
2023-02-23T23:12:28.388Z,8.07
2023-02-23T23:13:33.286Z,8.08
2023-02-23T23:14:37.098Z,8.09
2023-02-23T23:15:43.482Z,8.18
2023-02-23T23:16:53.328Z,8.34
2023-02-23T23:17:56.848Z,8.39
2023-02-23T23:19:05.329Z,8.48
2023-02-23T23:20:12.852Z,8.47
2023-02-23T23:21:22.464Z,8.50
2023-02-23T23:22:26.494Z,8.53
2023-02-23T23:23:30.772Z,8.52
2023-02-23T23:24:34.267Z,8.52
2023-02-23T23:25:42.602Z,8.52
2023-02-23T23:26:46.615Z,8.53
2023-02-23T23:27:54.197Z,8.54
2023-02-23T23:28:59.131Z,8.52
2023-02-23T23:30:06.027Z,8.54
2023-02-23T23:31:12.852Z,8.50
2023-02-23T23:32:20.178Z,8.54
2023-02-23T23:33:27.848Z,8.57
2023-02-23T23:34:34.019Z,8.56
2023-02-23T23:35:38.558Z,8.53
2023-02-23T23:36:46.383Z,8.54
2023-02-23T23:37:52.524Z,8.56
2023-02-23T23:38:59.698Z,8.58
2023-02-23T23:40:06.188Z,8.48
2023-02-23T23:41:14.731Z,8.45
2023-02-23T23:42:18.574Z,8.39
2023-02-23T23:43:23.359Z,8.36
2023-02-23T23:44:29.886Z,8.31
2023-02-23T23:45:38.571Z,8.30
2023-02-23T23:46:45.530Z,8.26
2023-02-23T23:47:49.376Z,8.21
2023-02-23T23:48:57.170Z,8.21
2023-02-23T23:50:03.252Z,8.18
2023-02-23T23:51:06.863Z,8.17
2023-02-23T23:52:10.269Z,8.04
2023-02-23T23:53:15.468Z,8.10
2023-02-23T23:54:21.951Z,8.09
2023-02-23T23:55:31.724Z,8.06
2023-02-23T23:56:38.224Z,8.06
2023-02-23T23:57:42.357Z,8.02
2023-02-23T23:58:45.926Z,8.01
2023-02-23T23:59:49.964Z,7.96
